sensor_id;sensor_type;location;lat;lon;timestamp;pressure;altitude;pressure_sealevel;temperature;humidity
73516;BME280;61763;51.416;5.442;2023-02-15T00:00:18;102848.50;;;-1.34;100.00
73516;BME280;61763;51.416;5.442;2023-02-15T00:02:44;102841.44;;;-1.35;100.00
73516;BME280;61763;51.416;5.442;2023-02-15T00:05:10;102850.34;;;-1.32;100.00
73516;BME280;61763;51.416;5.442;2023-02-15T00:07:36;102845.00;;;-1.33;100.00
73516;BME280;61763;51.416;5.442;2023-02-15T00:10:01;102846.69;;;-1.37;100.00
73516;BME280;61763;51.416;5.442;2023-02-15T00:12:27;102843.03;;;-1.41;100.00
73516;BME280;61763;51.416;5.442;2023-02-15T00:14:52;102848.13;;;-1.47;100.00
73516;BME280;61763;51.416;5.442;2023-02-15T00:17:17;102849.75;;;-1.50;100.00
73516;BME280;61763;51.416;5.442;2023-02-15T00:19:43;102840.84;;;-1.54;100.00
73516;BME280;61763;51.416;5.442;2023-02-15T00:22:08;102839.91;;;-1.56;100.00
73516;BME280;61763;51.416;5.442;2023-02-15T00:24:34;102837.22;;;-1.57;100.00
73516;BME280;61763;51.416;5.442;2023-02-15T00:26:59;102831.03;;;-1.56;100.00
73516;BME280;61763;51.416;5.442;2023-02-15T00:29:25;102836.38;;;-1.55;100.00
73516;BME280;61763;51.416;5.442;2023-02-15T00:31:51;102827.50;;;-1.57;100.00
73516;BME280;61763;51.416;5.442;2023-02-15T00:34:22;102826.53;;;-1.59;100.00
73516;BME280;61763;51.416;5.442;2023-02-15T00:36:49;102825.66;;;-1.60;100.00
73516;BME280;61763;51.416;5.442;2023-02-15T00:39:15;102825.50;;;-1.64;100.00
73516;BME280;61763;51.416;5.442;2023-02-15T00:41:43;102831.63;;;-1.65;100.00
73516;BME280;61763;51.416;5.442;2023-02-15T00:44:08;102832.38;;;-1.69;100.00
73516;BME280;61763;51.416;5.442;2023-02-15T00:46:34;102822.63;;;-1.72;100.00
73516;BME280;61763;51.416;5.442;2023-02-15T00:49:00;102822.44;;;-1.78;100.00
73516;BME280;61763;51.416;5.442;2023-02-15T00:51:25;102816.16;;;-1.80;100.00
73516;BME280;61763;51.416;5.442;2023-02-15T00:53:51;102814.41;;;-1.80;100.00
73516;BME280;61763;51.416;5.442;2023-02-15T00:56:16;102809.19;;;-1.78;100.00
73516;BME280;61763;51.416;5.442;2023-02-15T00:58:43;102803.03;;;-1.77;100.00
73516;BME280;61763;51.416;5.442;2023-02-15T01:01:15;102804.75;;;-1.79;100.00
73516;BME280;61763;51.416;5.442;2023-02-15T01:03:41;102809.94;;;-1.82;100.00
73516;BME280;61763;51.416;5.442;2023-02-15T01:06:11;102805.44;;;-1.85;100.00
73516;BME280;61763;51.416;5.442;2023-02-15T01:08:37;102800.19;;;-1.83;100.00
73516;BME280;61763;51.416;5.442;2023-02-15T01:11:12;102794.91;;;-1.83;100.00
73516;BME280;61763;51.416;5.442;2023-02-15T01:13:38;102794.94;;;-1.82;100.00
73516;BME280;61763;51.416;5.442;2023-02-15T01:16:04;102788.81;;;-1.81;100.00
73516;BME280;61763;51.416;5.442;2023-02-15T01:18:30;102795.00;;;-1.80;100.00
73516;BME280;61763;51.416;5.442;2023-02-15T01:20:56;102793.34;;;-1.77;100.00
73516;BME280;61763;51.416;5.442;2023-02-15T01:23:21;102792.38;;;-1.79;100.00
73516;BME280;61763;51.416;5.442;2023-02-15T01:25:47;102786.16;;;-1.81;100.00
73516;BME280;61763;51.416;5.442;2023-02-15T01:28:12;102782.66;;;-1.80;100.00
73516;BME280;61763;51.416;5.442;2023-02-15T01:30:37;102778.22;;;-1.81;100.00
73516;BME280;61763;51.416;5.442;2023-02-15T01:33:03;102776.47;;;-1.80;100.00
73516;BME280;61763;51.416;5.442;2023-02-15T01:35:28;102778.19;;;-1.82;100.00
73516;BME280;61763;51.416;5.442;2023-02-15T01:37:57;102781.66;;;-1.83;100.00
73516;BME280;61763;51.416;5.442;2023-02-15T01:40:23;102776.38;;;-1.83;100.00
73516;BME280;61763;51.416;5.442;2023-02-15T01:42:53;102775.47;;;-1.84;100.00
73516;BME280;61763;51.416;5.442;2023-02-15T01:45:29;102776.28;;;-1.86;100.00
73516;BME280;61763;51.416;5.442;2023-02-15T01:48:24;102778.97;;;-1.85;100.00
73516;BME280;61763;51.416;5.442;2023-02-15T01:50:55;102770.13;;;-1.85;100.00
73516;BME280;61763;51.416;5.442;2023-02-15T01:53:27;102770.09;;;-1.87;100.00
73516;BME280;61763;51.416;5.442;2023-02-15T01:56:03;102770.94;;;-1.88;100.00
73516;BME280;61763;51.416;5.442;2023-02-15T01:58:32;102763.00;;;-1.88;100.00
73516;BME280;61763;51.416;5.442;2023-02-15T02:01:00;102766.53;;;-1.87;100.00
73516;BME280;61763;51.416;5.442;2023-02-15T02:03:56;102762.09;;;-1.88;100.00
73516;BME280;61763;51.416;5.442;2023-02-15T02:06:26;102758.50;;;-1.90;100.00
73516;BME280;61763;51.416;5.442;2023-02-15T02:08:53;102761.09;;;-1.92;100.00
73516;BME280;61763;51.416;5.442;2023-02-15T02:11:20;102762.03;;;-1.90;100.00
73516;BME280;61763;51.416;5.442;2023-02-15T02:13:47;102752.41;;;-1.88;100.00
73516;BME280;61763;51.416;5.442;2023-02-15T02:16:24;102751.53;;;-1.88;100.00
73516;BME280;61763;51.416;5.442;2023-02-15T02:24:45;102743.81;;;-2.08;100.00
73516;BME280;61763;51.416;5.442;2023-02-15T02:27:39;102746.41;;;-2.09;100.00
73516;BME280;61763;51.416;5.442;2023-02-15T02:33:07;102728.53;;;-2.17;100.00
73516;BME280;61763;51.416;5.442;2023-02-15T02:35:45;102732.00;;;-2.19;100.00
73516;BME280;61763;51.416;5.442;2023-02-15T02:43:37;102726.69;;;-2.21;100.00
73516;BME280;61763;51.416;5.442;2023-02-15T02:46:12;102722.22;;;-2.22;100.00
73516;BME280;61763;51.416;5.442;2023-02-15T02:48:39;102724.81;;;-2.23;100.00
73516;BME280;61763;51.416;5.442;2023-02-15T02:51:05;102717.72;;;-2.24;100.00
73516;BME280;61763;51.416;5.442;2023-02-15T02:53:31;102730.00;;;-2.26;100.00
73516;BME280;61763;51.416;5.442;2023-02-15T02:56:18;102714.94;;;-2.29;100.00
73516;BME280;61763;51.416;5.442;2023-02-15T02:58:49;102719.38;;;-2.28;100.00
73516;BME280;61763;51.416;5.442;2023-02-15T03:01:28;102713.16;;;-2.29;100.00
73516;BME280;61763;51.416;5.442;2023-02-15T03:04:00;102717.47;;;-2.32;100.00
73516;BME280;61763;51.416;5.442;2023-02-15T03:09:12;102710.19;;;-2.39;100.00
73516;BME280;61763;51.416;5.442;2023-02-15T03:11:43;102706.59;;;-2.41;100.00
73516;BME280;61763;51.416;5.442;2023-02-15T03:14:10;102711.94;;;-2.40;100.00
73516;BME280;61763;51.416;5.442;2023-02-15T03:16:38;102709.34;;;-2.38;100.00
73516;BME280;61763;51.416;5.442;2023-02-15T03:19:15;102696.88;;;-2.42;100.00
73516;BME280;61763;51.416;5.442;2023-02-15T03:21:51;102697.66;;;-2.45;100.00
73516;BME280;61763;51.416;5.442;2023-02-15T03:24:43;102694.28;;;-2.41;100.00
73516;BME280;61763;51.416;5.442;2023-02-15T03:27:13;102695.31;;;-2.36;100.00
73516;BME280;61763;51.416;5.442;2023-02-15T03:29:44;102692.75;;;-2.33;100.00
73516;BME280;61763;51.416;5.442;2023-02-15T03:32:10;102688.44;;;-2.31;100.00
73516;BME280;61763;51.416;5.442;2023-02-15T03:34:37;102687.59;;;-2.30;100.00
73516;BME280;61763;51.416;5.442;2023-02-15T03:37:25;102687.03;;;-2.19;100.00
73516;BME280;61763;51.416;5.442;2023-02-15T03:40:02;102671.19;;;-1.60;100.00
73516;BME280;61763;51.416;5.442;2023-02-15T03:42:53;102667.69;;;-1.27;100.00
73516;BME280;61763;51.416;5.442;2023-02-15T03:45:26;102671.44;;;-1.20;100.00
73516;BME280;61763;51.416;5.442;2023-02-15T03:47:54;102674.78;;;-1.26;100.00
73516;BME280;61763;51.416;5.442;2023-02-15T03:50:27;102662.88;;;-1.10;100.00
73516;BME280;61763;51.416;5.442;2023-02-15T03:53:15;102665.22;;;-0.88;100.00
73516;BME280;61763;51.416;5.442;2023-02-15T03:55:46;102665.50;;;-0.77;100.00
73516;BME280;61763;51.416;5.442;2023-02-15T03:58:12;102668.94;;;-0.81;100.00
73516;BME280;61763;51.416;5.442;2023-02-15T04:01:04;102670.41;;;-0.92;100.00
73516;BME280;61763;51.416;5.442;2023-02-15T04:03:51;102669.38;;;-0.97;100.00
73516;BME280;61763;51.416;5.442;2023-02-15T04:06:20;102669.53;;;-0.93;100.00
73516;BME280;61763;51.416;5.442;2023-02-15T04:08:45;102659.09;;;-1.18;100.00
73516;BME280;61763;51.416;5.442;2023-02-15T04:11:30;102668.53;;;-1.28;100.00
73516;BME280;61763;51.416;5.442;2023-02-15T04:13:55;102656.84;;;-1.36;100.00
73516;BME280;61763;51.416;5.442;2023-02-15T04:16:24;102673.47;;;-1.42;100.00
73516;BME280;61763;51.416;5.442;2023-02-15T04:18:50;102671.75;;;-1.40;100.00
73516;BME280;61763;51.416;5.442;2023-02-15T04:21:34;102668.84;;;-1.49;100.00
73516;BME280;61763;51.416;5.442;2023-02-15T04:24:18;102672.75;;;-1.36;100.00
73516;BME280;61763;51.416;5.442;2023-02-15T04:27:02;102672.38;;;-1.49;100.00
73516;BME280;61763;51.416;5.442;2023-02-15T04:29:29;102667.78;;;-1.56;100.00
73516;BME280;61763;51.416;5.442;2023-02-15T04:31:56;102663.13;;;-1.65;100.00
73516;BME280;61763;51.416;5.442;2023-02-15T04:34:23;102675.31;;;-1.70;100.00
73516;BME280;61763;51.416;5.442;2023-02-15T04:36:48;102671.78;;;-1.70;100.00
73516;BME280;61763;51.416;5.442;2023-02-15T04:39:16;102672.53;;;-1.74;100.00
73516;BME280;61763;51.416;5.442;2023-02-15T04:41:42;102668.13;;;-1.74;100.00
73516;BME280;61763;51.416;5.442;2023-02-15T04:44:08;102667.19;;;-1.76;100.00
73516;BME280;61763;51.416;5.442;2023-02-15T04:46:34;102669.75;;;-1.79;100.00
73516;BME280;61763;51.416;5.442;2023-02-15T04:48:59;102664.31;;;-1.84;100.00
73516;BME280;61763;51.416;5.442;2023-02-15T04:51:24;102668.59;;;-1.87;100.00
73516;BME280;61763;51.416;5.442;2023-02-15T04:53:50;102663.25;;;-1.89;100.00
73516;BME280;61763;51.416;5.442;2023-02-15T04:56:20;102656.91;;;-1.96;100.00
73516;BME280;61763;51.416;5.442;2023-02-15T04:58:45;102651.66;;;-1.94;100.00
73516;BME280;61763;51.416;5.442;2023-02-15T05:01:11;102643.81;;;-1.91;100.00
73516;BME280;61763;51.416;5.442;2023-02-15T05:03:36;102648.41;;;-1.85;100.00
73516;BME280;61763;51.416;5.442;2023-02-15T05:06:03;102644.16;;;-1.79;100.00
73516;BME280;61763;51.416;5.442;2023-02-15T05:08:28;102641.91;;;-1.66;100.00
73516;BME280;61763;51.416;5.442;2023-02-15T05:10:54;102640.34;;;-1.58;100.00
73516;BME280;61763;51.416;5.442;2023-02-15T05:13:19;102643.91;;;-1.57;100.00
73516;BME280;61763;51.416;5.442;2023-02-15T05:15:48;102635.00;;;-1.60;100.00
73516;BME280;61763;51.416;5.442;2023-02-15T05:18:14;102641.25;;;-1.57;100.00
73516;BME280;61763;51.416;5.442;2023-02-15T05:20:40;102631.81;;;-1.48;100.00
73516;BME280;61763;51.416;5.442;2023-02-15T05:23:07;102637.47;;;-1.35;100.00
73516;BME280;61763;51.416;5.442;2023-02-15T05:25:32;102641.63;;;-1.44;100.00
73516;BME280;61763;51.416;5.442;2023-02-15T05:28:16;102631.34;;;-1.33;100.00
73516;BME280;61763;51.416;5.442;2023-02-15T05:30:44;102633.13;;;-1.32;100.00
73516;BME280;61763;51.416;5.442;2023-02-15T05:33:09;102631.13;;;-1.41;100.00
73516;BME280;61763;51.416;5.442;2023-02-15T05:35:35;102631.81;;;-1.48;100.00
73516;BME280;61763;51.416;5.442;2023-02-15T05:38:01;102619.16;;;-1.58;100.00
73516;BME280;61763;51.416;5.442;2023-02-15T05:40:28;102626.19;;;-1.60;100.00
73516;BME280;61763;51.416;5.442;2023-02-15T05:42:53;102629.63;;;-1.63;100.00
73516;BME280;61763;51.416;5.442;2023-02-15T05:45:19;102611.22;;;-1.58;100.00
73516;BME280;61763;51.416;5.442;2023-02-15T05:47:44;102626.38;;;-1.52;100.00
73516;BME280;61763;51.416;5.442;2023-02-15T05:50:10;102626.94;;;-1.64;100.00
73516;BME280;61763;51.416;5.442;2023-02-15T05:52:36;102632.06;;;-1.70;100.00
73516;BME280;61763;51.416;5.442;2023-02-15T05:55:02;102626.75;;;-1.70;100.00
73516;BME280;61763;51.416;5.442;2023-02-15T05:57:29;102626.47;;;-1.80;100.00
73516;BME280;61763;51.416;5.442;2023-02-15T05:59:55;102622.78;;;-1.86;100.00
73516;BME280;61763;51.416;5.442;2023-02-15T06:02:20;102623.44;;;-1.94;100.00
73516;BME280;61763;51.416;5.442;2023-02-15T06:04:46;102639.97;;;-2.01;100.00
73516;BME280;61763;51.416;5.442;2023-02-15T06:07:11;102636.19;;;-1.80;100.00
73516;BME280;61763;51.416;5.442;2023-02-15T06:09:36;102641.47;;;-1.80;100.00
73516;BME280;61763;51.416;5.442;2023-02-15T06:12:02;102637.91;;;-1.82;100.00
73516;BME280;61763;51.416;5.442;2023-02-15T06:14:27;102636.97;;;-1.83;100.00
73516;BME280;61763;51.416;5.442;2023-02-15T06:16:53;102644.78;;;-1.87;100.00
73516;BME280;61763;51.416;5.442;2023-02-15T06:19:19;102637.19;;;-1.77;100.00
73516;BME280;61763;51.416;5.442;2023-02-15T06:21:46;102635.28;;;-1.81;100.00
73516;BME280;61763;51.416;5.442;2023-02-15T06:24:11;102637.03;;;-1.81;100.00
73516;BME280;61763;51.416;5.442;2023-02-15T06:26:36;102635.16;;;-1.85;100.00
73516;BME280;61763;51.416;5.442;2023-02-15T06:29:02;102632.81;;;-1.74;100.00
73516;BME280;61763;51.416;5.442;2023-02-15T06:31:27;102636.03;;;-1.85;100.00
73516;BME280;61763;51.416;5.442;2023-02-15T06:33:54;102642.66;;;-1.99;100.00
73516;BME280;61763;51.416;5.442;2023-02-15T06:36:26;102634.56;;;-2.05;100.00
73516;BME280;61763;51.416;5.442;2023-02-15T06:38:52;102630.75;;;-2.14;100.00
73516;BME280;61763;51.416;5.442;2023-02-15T06:41:17;102636.66;;;-2.22;100.00
73516;BME280;61763;51.416;5.442;2023-02-15T06:43:43;102638.41;;;-2.23;100.00
73516;BME280;61763;51.416;5.442;2023-02-15T06:46:08;102633.25;;;-2.18;100.00
73516;BME280;61763;51.416;5.442;2023-02-15T06:48:34;102634.09;;;-2.21;100.00
73516;BME280;61763;51.416;5.442;2023-02-15T06:50:59;102630.63;;;-2.18;100.00
73516;BME280;61763;51.416;5.442;2023-02-15T06:53:24;102624.44;;;-2.19;100.00
73516;BME280;61763;51.416;5.442;2023-02-15T06:55:50;102629.81;;;-2.16;100.00
73516;BME280;61763;51.416;5.442;2023-02-15T06:58:15;102625.78;;;-2.04;100.00
73516;BME280;61763;51.416;5.442;2023-02-15T07:00:41;102619.50;;;-2.06;100.00
73516;BME280;61763;51.416;5.442;2023-02-15T07:03:06;102612.41;;;-2.09;100.00
73516;BME280;61763;51.416;5.442;2023-02-15T07:05:33;102605.34;;;-2.08;100.00
73516;BME280;61763;51.416;5.442;2023-02-15T07:08:00;102616.06;;;-2.04;100.00
73516;BME280;61763;51.416;5.442;2023-02-15T07:10:26;102605.50;;;-2.04;100.00
73516;BME280;61763;51.416;5.442;2023-02-15T07:12:52;102621.50;;;-1.99;100.00
73516;BME280;61763;51.416;5.442;2023-02-15T07:15:18;102607.44;;;-1.98;100.00
73516;BME280;61763;51.416;5.442;2023-02-15T07:17:46;102607.91;;;-1.81;100.00
73516;BME280;61763;51.416;5.442;2023-02-15T07:20:15;102599.03;;;-1.83;100.00
73516;BME280;61763;51.416;5.442;2023-02-15T07:22:42;102608.53;;;-1.60;100.00
73516;BME280;61763;51.416;5.442;2023-02-15T07:25:10;102607.66;;;-1.60;100.00
73516;BME280;61763;51.416;5.442;2023-02-15T07:27:35;102592.41;;;-1.69;100.00
73516;BME280;61763;51.416;5.442;2023-02-15T07:30:04;102600.00;;;-1.49;100.00
73516;BME280;61763;51.416;5.442;2023-02-15T07:32:33;102601.78;;;-1.48;100.00
73516;BME280;61763;51.416;5.442;2023-02-15T07:34:59;102597.69;;;-1.37;100.00
73516;BME280;61763;51.416;5.442;2023-02-15T07:37:25;102596.22;;;-1.26;100.00
73516;BME280;61763;51.416;5.442;2023-02-15T07:39:50;102597.28;;;-1.19;100.00
73516;BME280;61763;51.416;5.442;2023-02-15T07:42:15;102599.25;;;-1.12;100.00
73516;BME280;61763;51.416;5.442;2023-02-15T07:44:41;102605.63;;;-1.03;100.00
73516;BME280;61763;51.416;5.442;2023-02-15T07:47:06;102597.03;;;-0.93;100.00
73516;BME280;61763;51.416;5.442;2023-02-15T07:49:32;102599.78;;;-0.90;100.00
73516;BME280;61763;51.416;5.442;2023-02-15T07:51:57;102586.50;;;-0.90;100.00
73516;BME280;61763;51.416;5.442;2023-02-15T07:54:22;102591.00;;;-0.88;100.00
73516;BME280;61763;51.416;5.442;2023-02-15T07:56:48;102587.34;;;-0.93;100.00
73516;BME280;61763;51.416;5.442;2023-02-15T07:59:13;102596.44;;;-0.81;100.00
73516;BME280;61763;51.416;5.442;2023-02-15T08:01:39;102591.50;;;-0.67;100.00
73516;BME280;61763;51.416;5.442;2023-02-15T08:04:05;102593.25;;;-0.68;100.00
73516;BME280;61763;51.416;5.442;2023-02-15T08:06:34;102592.03;;;-0.44;100.00
73516;BME280;61763;51.416;5.442;2023-02-15T08:09:04;102598.44;;;-0.34;100.00
73516;BME280;61763;51.416;5.442;2023-02-15T08:11:31;102592.16;;;-0.40;100.00
73516;BME280;61763;51.416;5.442;2023-02-15T08:16:49;102589.16;;;-0.15;100.00
73516;BME280;61763;51.416;5.442;2023-02-15T08:21:44;102588.28;;;0.27;100.00
73516;BME280;61763;51.416;5.442;2023-02-15T08:24:11;102577.78;;;0.33;100.00
73516;BME280;61763;51.416;5.442;2023-02-15T08:26:38;102576.22;;;0.44;100.00
73516;BME280;61763;51.416;5.442;2023-02-15T08:29:05;102576.38;;;0.52;100.00
73516;BME280;61763;51.416;5.442;2023-02-15T08:31:32;102573.19;;;0.73;100.00
73516;BME280;61763;51.416;5.442;2023-02-15T08:33:58;102572.50;;;0.83;100.00
73516;BME280;61763;51.416;5.442;2023-02-15T08:36:28;102579.94;;;1.04;100.00
73516;BME280;61763;51.416;5.442;2023-02-15T08:39:00;102577.56;;;1.20;100.00
73516;BME280;61763;51.416;5.442;2023-02-15T08:41:28;102578.59;;;1.30;100.00
73516;BME280;61763;51.416;5.442;2023-02-15T08:43:56;102575.22;;;1.40;100.00
73516;BME280;61763;51.416;5.442;2023-02-15T08:46:24;102574.47;;;1.49;100.00
73516;BME280;61763;51.416;5.442;2023-02-15T08:48:49;102567.66;;;1.69;100.00
73516;BME280;61763;51.416;5.442;2023-02-15T08:51:17;102564.38;;;1.89;100.00
73516;BME280;61763;51.416;5.442;2023-02-15T08:53:49;102557.38;;;1.99;100.00
73516;BME280;61763;51.416;5.442;2023-02-15T08:56:15;102560.16;;;2.06;100.00
73516;BME280;61763;51.416;5.442;2023-02-15T08:58:41;102567.41;;;2.17;100.00
73516;BME280;61763;51.416;5.442;2023-02-15T09:01:18;102559.47;;;2.24;100.00
73516;BME280;61763;51.416;5.442;2023-02-15T09:03:46;102557.88;;;2.39;100.00
73516;BME280;61763;51.416;5.442;2023-02-15T09:06:12;102557.06;;;2.46;100.00
73516;BME280;61763;51.416;5.442;2023-02-15T09:08:38;102552.81;;;2.65;100.00
73516;BME280;61763;51.416;5.442;2023-02-15T09:11:11;102552.97;;;2.84;100.00
73516;BME280;61763;51.416;5.442;2023-02-15T09:13:37;102549.56;;;3.02;100.00
73516;BME280;61763;51.416;5.442;2023-02-15T09:16:05;102541.69;;;3.11;100.00
73516;BME280;61763;51.416;5.442;2023-02-15T09:18:32;102546.19;;;3.20;100.00
73516;BME280;61763;51.416;5.442;2023-02-15T09:21:05;102541.75;;;3.25;100.00
73516;BME280;61763;51.416;5.442;2023-02-15T09:23:30;102537.44;;;3.41;100.00
73516;BME280;61763;51.416;5.442;2023-02-15T09:26:01;102538.41;;;3.55;100.00
73516;BME280;61763;51.416;5.442;2023-02-15T09:28:27;102539.31;;;3.62;100.00
73516;BME280;61763;51.416;5.442;2023-02-15T09:30:52;102528.72;;;3.73;100.00
73516;BME280;61763;51.416;5.442;2023-02-15T09:33:18;102527.88;;;3.84;100.00
73516;BME280;61763;51.416;5.442;2023-02-15T09:35:43;102528.88;;;4.05;100.00
73516;BME280;61763;51.416;5.442;2023-02-15T09:38:08;102519.13;;;4.24;100.00
73516;BME280;61763;51.416;5.442;2023-02-15T09:40:43;102517.34;;;4.35;100.00
73516;BME280;61763;51.416;5.442;2023-02-15T09:43:25;102520.97;;;4.57;100.00
73516;BME280;61763;51.416;5.442;2023-02-15T09:46:20;102511.19;;;4.75;100.00
73516;BME280;61763;51.416;5.442;2023-02-15T09:48:55;102521.00;;;5.07;100.00
73516;BME280;61763;51.416;5.442;2023-02-15T09:51:47;102525.47;;;5.17;100.00
73516;BME280;61763;51.416;5.442;2023-02-15T09:54:36;102523.63;;;5.25;100.00
73516;BME280;61763;51.416;5.442;2023-02-15T09:57:24;102522.75;;;5.42;100.00
73516;BME280;61763;51.416;5.442;2023-02-15T10:05:30;102519.91;;;5.91;100.00
73516;BME280;61763;51.416;5.442;2023-02-15T10:08:20;102513.63;;;6.05;100.00
73516;BME280;61763;51.416;5.442;2023-02-15T10:11:17;102517.13;;;6.19;100.00
73516;BME280;61763;51.416;5.442;2023-02-15T10:16:50;102519.66;;;6.47;100.00
73516;BME280;61763;51.416;5.442;2023-02-15T10:19:54;102530.28;;;6.59;96.41
73516;BME280;61763;51.416;5.442;2023-02-15T10:25:30;102529.16;;;6.91;94.07
73516;BME280;61763;51.416;5.442;2023-02-15T10:28:11;102530.91;;;6.97;93.49
73516;BME280;61763;51.416;5.442;2023-02-15T10:30:50;102531.69;;;7.13;91.94
73516;BME280;61763;51.416;5.442;2023-02-15T10:33:41;102525.28;;;7.26;91.44
73516;BME280;61763;51.416;5.442;2023-02-15T10:39:56;102519.63;;;7.56;88.69
73516;BME280;61763;51.416;5.442;2023-02-15T10:42:40;102513.94;;;7.82;86.67
73516;BME280;61763;51.416;5.442;2023-02-15T10:48:22;102500.31;;;7.97;88.80
73516;BME280;61763;51.416;5.442;2023-02-15T10:51:05;102503.66;;;8.15;85.37
73516;BME280;61763;51.416;5.442;2023-02-15T10:56:46;102498.78;;;8.41;84.02
73516;BME280;61763;51.416;5.442;2023-02-15T10:59:30;102489.47;;;8.67;80.42
73516;BME280;61763;51.416;5.442;2023-02-15T11:02:12;102491.84;;;8.86;78.72
73516;BME280;61763;51.416;5.442;2023-02-15T11:04:53;102491.47;;;9.07;77.83
73516;BME280;61763;51.416;5.442;2023-02-15T11:07:38;102475.09;;;9.20;77.53
73516;BME280;61763;51.416;5.442;2023-02-15T11:13:12;102479.94;;;9.47;75.61
73516;BME280;61763;51.416;5.442;2023-02-15T11:15:47;102477.03;;;9.60;74.89
73516;BME280;61763;51.416;5.442;2023-02-15T11:18:24;102480.13;;;9.84;73.62
73516;BME280;61763;51.416;5.442;2023-02-15T11:23:44;102475.31;;;9.98;72.67
73516;BME280;61763;51.416;5.442;2023-02-15T11:29:14;102463.03;;;10.25;71.93
73516;BME280;61763;51.416;5.442;2023-02-15T11:31:43;102457.25;;;10.44;73.19
73516;BME280;61763;51.416;5.442;2023-02-15T11:34:27;102451.16;;;10.70;71.64
73516;BME280;61763;51.416;5.442;2023-02-15T11:37:00;102448.19;;;10.82;70.32
73516;BME280;61763;51.416;5.442;2023-02-15T11:39:28;102436.22;;;10.93;68.40
73516;BME280;61763;51.416;5.442;2023-02-15T11:41:57;102437.47;;;11.12;66.70
73516;BME280;61763;51.416;5.442;2023-02-15T11:46:58;102428.09;;;11.26;67.25
73516;BME280;61763;51.416;5.442;2023-02-15T11:49:34;102430.63;;;11.32;66.03
73516;BME280;61763;51.416;5.442;2023-02-15T11:52:06;102432.22;;;11.39;66.52
73516;BME280;61763;51.416;5.442;2023-02-15T11:54:36;102423.88;;;11.47;65.99
73516;BME280;61763;51.416;5.442;2023-02-15T11:57:31;102409.22;;;11.55;67.38
73516;BME280;61763;51.416;5.442;2023-02-15T12:00:09;102405.34;;;11.64;65.63
73516;BME280;61763;51.416;5.442;2023-02-15T12:02:38;102402.06;;;11.84;63.33
73516;BME280;61763;51.416;5.442;2023-02-15T12:05:13;102403.75;;;11.88;63.65
73516;BME280;61763;51.416;5.442;2023-02-15T12:07:45;102399.59;;;12.06;59.73
73516;BME280;61763;51.416;5.442;2023-02-15T12:10:40;102403.44;;;11.99;57.61
73516;BME280;61763;51.416;5.442;2023-02-15T12:13:16;102402.34;;;12.05;57.47
73516;BME280;61763;51.416;5.442;2023-02-15T12:15:50;102393.31;;;12.06;59.93
73516;BME280;61763;51.416;5.442;2023-02-15T12:21:07;102384.88;;;12.15;55.51
73516;BME280;61763;51.416;5.442;2023-02-15T12:23:41;102384.34;;;12.04;57.04
73516;BME280;61763;51.416;5.442;2023-02-15T12:26:08;102381.53;;;12.07;56.89
73516;BME280;61763;51.416;5.442;2023-02-15T12:28:36;102385.09;;;12.09;56.40
73516;BME280;61763;51.416;5.442;2023-02-15T12:31:33;102377.91;;;12.08;58.94
73516;BME280;61763;51.416;5.442;2023-02-15T12:34:04;102376.66;;;12.18;58.52
73516;BME280;61763;51.416;5.442;2023-02-15T12:36:47;102372.78;;;12.27;57.42
73516;BME280;61763;51.416;5.442;2023-02-15T12:39:22;102364.88;;;12.21;56.73
73516;BME280;61763;51.416;5.442;2023-02-15T12:44:27;102371.16;;;12.21;58.27
73516;BME280;61763;51.416;5.442;2023-02-15T12:49:26;102363.28;;;12.14;58.09
73516;BME280;61763;51.416;5.442;2023-02-15T12:51:57;102359.88;;;12.35;56.94
73516;BME280;61763;51.416;5.442;2023-02-15T12:54:40;102350.75;;;12.38;56.71
73516;BME280;61763;51.416;5.442;2023-02-15T12:57:29;102348.88;;;12.40;56.20
73516;BME280;61763;51.416;5.442;2023-02-15T13:00:23;102343.19;;;12.48;56.38
73516;BME280;61763;51.416;5.442;2023-02-15T13:02:51;102358.41;;;12.52;54.96
73516;BME280;61763;51.416;5.442;2023-02-15T13:05:38;102351.75;;;12.62;54.78
73516;BME280;61763;51.416;5.442;2023-02-15T13:08:33;102341.13;;;12.56;55.48
73516;BME280;61763;51.416;5.442;2023-02-15T13:11:02;102338.50;;;12.79;53.50
73516;BME280;61763;51.416;5.442;2023-02-15T13:13:31;102336.47;;;12.59;54.37
73516;BME280;61763;51.416;5.442;2023-02-15T13:16:02;102335.72;;;12.54;53.83
73516;BME280;61763;51.416;5.442;2023-02-15T13:18:45;102333.69;;;12.36;54.47
73516;BME280;61763;51.416;5.442;2023-02-15T13:21:15;102332.44;;;12.46;54.13
73516;BME280;61763;51.416;5.442;2023-02-15T13:23:51;102331.84;;;12.36;55.10
73516;BME280;61763;51.416;5.442;2023-02-15T13:26:19;102327.63;;;12.27;54.45
73516;BME280;61763;51.416;5.442;2023-02-15T13:28:48;102324.75;;;12.32;54.04
73516;BME280;61763;51.416;5.442;2023-02-15T13:31:22;102321.19;;;12.32;54.79
73516;BME280;61763;51.416;5.442;2023-02-15T13:33:54;102321.94;;;12.37;52.61
73516;BME280;61763;51.416;5.442;2023-02-15T13:42:20;102311.50;;;12.24;53.39
73516;BME280;61763;51.416;5.442;2023-02-15T13:44:57;102322.47;;;12.20;54.04
73516;BME280;61763;51.416;5.442;2023-02-15T13:47:44;102318.03;;;12.17;55.21
73516;BME280;61763;51.416;5.442;2023-02-15T13:50:46;102310.56;;;12.25;54.43
73516;BME280;61763;51.416;5.442;2023-02-15T14:04:03;102300.16;;;12.40;53.68
73516;BME280;61763;51.416;5.442;2023-02-15T14:09:46;102302.19;;;12.33;53.90
73516;BME280;61763;51.416;5.442;2023-02-15T14:20:59;102319.00;;;12.16;55.92
73516;BME280;61763;51.416;5.442;2023-02-15T14:27:10;102326.44;;;12.09;55.96
73516;BME280;61763;51.416;5.442;2023-02-15T14:31:53;102331.19;;;12.03;57.42
73516;BME280;61763;51.416;5.442;2023-02-15T14:36:55;102336.88;;;11.94;58.26
73516;BME280;61763;51.416;5.442;2023-02-15T14:42:30;102340.56;;;11.89;57.94
73516;BME280;61763;51.416;5.442;2023-02-15T14:45:17;102341.41;;;11.91;58.30
73516;BME280;61763;51.416;5.442;2023-02-15T14:47:51;102336.22;;;11.85;58.36